sensor_id;sensor_type;location;lat;lon;timestamp;P1;durP1;ratioP1;P2;durP2;ratioP2
73158;SDS011;61370;48.594;10.202;2022-10-16T00:01:19;6.05;;;2.83;;
73158;SDS011;61370;48.594;10.202;2022-10-16T00:03:47;6.07;;;2.90;;
73158;SDS011;61370;48.594;10.202;2022-10-16T00:06:15;7.10;;;2.80;;
73158;SDS011;61370;48.594;10.202;2022-10-16T00:08:43;5.00;;;2.85;;
73158;SDS011;61370;48.594;10.202;2022-10-16T00:11:11;6.45;;;2.90;;
73158;SDS011;61370;48.594;10.202;2022-10-16T00:13:38;7.28;;;3.00;;
73158;SDS011;61370;48.594;10.202;2022-10-16T00:16:06;6.55;;;2.85;;
73158;SDS011;61370;48.594;10.202;2022-10-16T00:18:33;7.88;;;3.00;;
73158;SDS011;61370;48.594;10.202;2022-10-16T00:21:19;5.13;;;2.67;;
73158;SDS011;61370;48.594;10.202;2022-10-16T00:24:07;5.32;;;3.00;;
73158;SDS011;61370;48.594;10.202;2022-10-16T00:26:35;8.05;;;3.00;;
73158;SDS011;61370;48.594;10.202;2022-10-16T00:29:04;7.30;;;3.38;;
73158;SDS011;61370;48.594;10.202;2022-10-16T00:31:31;6.18;;;3.03;;
73158;SDS011;61370;48.594;10.202;2022-10-16T00:33:58;8.77;;;2.80;;
73158;SDS011;61370;48.594;10.202;2022-10-16T00:36:25;6.47;;;2.83;;
73158;SDS011;61370;48.594;10.202;2022-10-16T00:38:55;7.63;;;3.17;;
73158;SDS011;61370;48.594;10.202;2022-10-16T00:41:23;5.07;;;2.58;;
73158;SDS011;61370;48.594;10.202;2022-10-16T00:43:52;7.07;;;2.70;;
73158;SDS011;61370;48.594;10.202;2022-10-16T00:51:31;6.53;;;2.80;;
73158;SDS011;61370;48.594;10.202;2022-10-16T00:53:59;4.93;;;2.78;;
73158;SDS011;61370;48.594;10.202;2022-10-16T00:56:26;5.68;;;2.83;;
73158;SDS011;61370;48.594;10.202;2022-10-16T00:58:53;4.75;;;2.70;;
73158;SDS011;61370;48.594;10.202;2022-10-16T01:01:19;7.50;;;3.00;;
73158;SDS011;61370;48.594;10.202;2022-10-16T01:03:46;5.30;;;3.10;;
73158;SDS011;61370;48.594;10.202;2022-10-16T01:11:23;8.15;;;3.28;;
73158;SDS011;61370;48.594;10.202;2022-10-16T01:13:53;6.03;;;3.22;;
73158;SDS011;61370;48.594;10.202;2022-10-16T01:16:24;5.15;;;2.42;;
73158;SDS011;61370;48.594;10.202;2022-10-16T01:19:09;5.68;;;2.90;;
73158;SDS011;61370;48.594;10.202;2022-10-16T01:21:38;6.40;;;3.17;;
73158;SDS011;61370;48.594;10.202;2022-10-16T01:29:54;7.82;;;3.15;;
73158;SDS011;61370;48.594;10.202;2022-10-16T01:32:33;5.93;;;3.00;;
73158;SDS011;61370;48.594;10.202;2022-10-16T01:37:36;5.47;;;3.03;;
73158;SDS011;61370;48.594;10.202;2022-10-16T01:40:07;7.30;;;3.10;;
73158;SDS011;61370;48.594;10.202;2022-10-16T01:42:39;5.25;;;3.00;;
73158;SDS011;61370;48.594;10.202;2022-10-16T01:45:08;5.68;;;2.75;;
73158;SDS011;61370;48.594;10.202;2022-10-16T01:47:39;6.80;;;2.92;;
73158;SDS011;61370;48.594;10.202;2022-10-16T01:50:06;6.93;;;2.88;;
73158;SDS011;61370;48.594;10.202;2022-10-16T01:52:35;4.63;;;2.92;;
73158;SDS011;61370;48.594;10.202;2022-10-16T01:55:03;7.25;;;3.35;;
73158;SDS011;61370;48.594;10.202;2022-10-16T01:57:31;7.57;;;3.22;;
73158;SDS011;61370;48.594;10.202;2022-10-16T02:00:02;5.30;;;2.97;;
73158;SDS011;61370;48.594;10.202;2022-10-16T02:02:42;7.05;;;3.10;;
73158;SDS011;61370;48.594;10.202;2022-10-16T02:05:24;7.90;;;3.13;;
73158;SDS011;61370;48.594;10.202;2022-10-16T02:07:53;5.18;;;3.22;;
73158;SDS011;61370;48.594;10.202;2022-10-16T02:10:19;6.55;;;3.33;;
73158;SDS011;61370;48.594;10.202;2022-10-16T02:12:55;5.88;;;3.13;;
73158;SDS011;61370;48.594;10.202;2022-10-16T02:15:24;6.95;;;2.95;;
73158;SDS011;61370;48.594;10.202;2022-10-16T02:17:51;6.78;;;3.70;;
73158;SDS011;61370;48.594;10.202;2022-10-16T02:20:18;5.82;;;3.15;;
73158;SDS011;61370;48.594;10.202;2022-10-16T02:22:49;5.88;;;3.10;;
73158;SDS011;61370;48.594;10.202;2022-10-16T02:25:22;5.93;;;3.35;;
73158;SDS011;61370;48.594;10.202;2022-10-16T02:28:06;6.80;;;3.50;;
73158;SDS011;61370;48.594;10.202;2022-10-16T02:30:36;6.00;;;3.08;;
73158;SDS011;61370;48.594;10.202;2022-10-16T02:33:05;5.72;;;3.40;;
73158;SDS011;61370;48.594;10.202;2022-10-16T02:35:33;6.65;;;3.40;;
73158;SDS011;61370;48.594;10.202;2022-10-16T02:38:00;5.25;;;3.28;;
73158;SDS011;61370;48.594;10.202;2022-10-16T02:40:26;6.97;;;3.58;;
73158;SDS011;61370;48.594;10.202;2022-10-16T02:42:54;7.60;;;3.30;;
73158;SDS011;61370;48.594;10.202;2022-10-16T02:45:21;5.60;;;3.30;;
73158;SDS011;61370;48.594;10.202;2022-10-16T02:47:48;7.07;;;3.40;;
73158;SDS011;61370;48.594;10.202;2022-10-16T02:50:14;6.05;;;3.30;;
73158;SDS011;61370;48.594;10.202;2022-10-16T02:52:41;7.65;;;3.30;;
73158;SDS011;61370;48.594;10.202;2022-10-16T02:55:08;9.20;;;3.35;;
73158;SDS011;61370;48.594;10.202;2022-10-16T02:57:35;6.20;;;3.30;;
73158;SDS011;61370;48.594;10.202;2022-10-16T03:00:07;8.43;;;3.38;;
73158;SDS011;61370;48.594;10.202;2022-10-16T03:02:35;5.18;;;3.17;;
73158;SDS011;61370;48.594;10.202;2022-10-16T03:05:01;5.35;;;3.50;;
73158;SDS011;61370;48.594;10.202;2022-10-16T03:07:28;6.57;;;3.25;;
73158;SDS011;61370;48.594;10.202;2022-10-16T03:09:54;5.97;;;3.60;;
73158;SDS011;61370;48.594;10.202;2022-10-16T03:12:21;7.53;;;3.67;;
73158;SDS011;61370;48.594;10.202;2022-10-16T03:14:48;6.88;;;3.60;;
73158;SDS011;61370;48.594;10.202;2022-10-16T03:17:15;9.15;;;3.40;;
73158;SDS011;61370;48.594;10.202;2022-10-16T03:19:42;5.45;;;2.90;;
73158;SDS011;61370;48.594;10.202;2022-10-16T03:22:09;6.82;;;3.63;;
73158;SDS011;61370;48.594;10.202;2022-10-16T03:24:35;6.15;;;3.60;;
73158;SDS011;61370;48.594;10.202;2022-10-16T03:27:02;8.80;;;3.45;;
73158;SDS011;61370;48.594;10.202;2022-10-16T03:29:28;5.53;;;3.58;;
73158;SDS011;61370;48.594;10.202;2022-10-16T03:31:56;6.30;;;2.88;;
73158;SDS011;61370;48.594;10.202;2022-10-16T03:34:22;5.65;;;2.92;;
73158;SDS011;61370;48.594;10.202;2022-10-16T03:36:49;5.63;;;3.40;;
73158;SDS011;61370;48.594;10.202;2022-10-16T03:39:15;6.95;;;3.22;;
73158;SDS011;61370;48.594;10.202;2022-10-16T03:41:42;8.27;;;3.47;;
73158;SDS011;61370;48.594;10.202;2022-10-16T03:44:08;6.53;;;3.20;;
73158;SDS011;61370;48.594;10.202;2022-10-16T03:46:35;8.55;;;4.18;;
73158;SDS011;61370;48.594;10.202;2022-10-16T03:49:01;6.32;;;4.10;;
73158;SDS011;61370;48.594;10.202;2022-10-16T03:51:28;6.53;;;4.18;;
73158;SDS011;61370;48.594;10.202;2022-10-16T03:53:54;7.95;;;3.97;;
73158;SDS011;61370;48.594;10.202;2022-10-16T03:56:21;6.85;;;3.85;;
73158;SDS011;61370;48.594;10.202;2022-10-16T03:58:47;10.65;;;4.43;;
73158;SDS011;61370;48.594;10.202;2022-10-16T04:01:14;5.43;;;3.50;;
73158;SDS011;61370;48.594;10.202;2022-10-16T04:03:41;6.40;;;4.00;;
73158;SDS011;61370;48.594;10.202;2022-10-16T04:06:07;7.40;;;3.67;;
73158;SDS011;61370;48.594;10.202;2022-10-16T04:08:34;6.63;;;3.50;;
73158;SDS011;61370;48.594;10.202;2022-10-16T04:11:02;5.35;;;3.50;;
73158;SDS011;61370;48.594;10.202;2022-10-16T04:13:29;5.40;;;3.50;;
73158;SDS011;61370;48.594;10.202;2022-10-16T04:15:56;7.78;;;3.33;;
73158;SDS011;61370;48.594;10.202;2022-10-16T04:18:22;6.13;;;2.72;;
73158;SDS011;61370;48.594;10.202;2022-10-16T04:20:49;6.32;;;3.10;;
73158;SDS011;61370;48.594;10.202;2022-10-16T04:23:15;5.95;;;3.30;;
73158;SDS011;61370;48.594;10.202;2022-10-16T04:25:42;8.93;;;3.65;;
73158;SDS011;61370;48.594;10.202;2022-10-16T04:28:08;5.85;;;3.53;;
73158;SDS011;61370;48.594;10.202;2022-10-16T04:30:37;7.05;;;3.70;;
73158;SDS011;61370;48.594;10.202;2022-10-16T04:33:04;10.48;;;3.83;;
73158;SDS011;61370;48.594;10.202;2022-10-16T04:35:30;8.82;;;3.80;;
73158;SDS011;61370;48.594;10.202;2022-10-16T04:38:00;5.18;;;3.10;;
73158;SDS011;61370;48.594;10.202;2022-10-16T04:40:27;7.05;;;3.42;;
73158;SDS011;61370;48.594;10.202;2022-10-16T04:42:53;5.75;;;3.67;;
73158;SDS011;61370;48.594;10.202;2022-10-16T04:45:20;8.70;;;3.58;;
73158;SDS011;61370;48.594;10.202;2022-10-16T04:47:46;6.72;;;3.45;;
73158;SDS011;61370;48.594;10.202;2022-10-16T04:50:12;6.38;;;3.33;;
73158;SDS011;61370;48.594;10.202;2022-10-16T04:52:39;7.75;;;3.58;;
73158;SDS011;61370;48.594;10.202;2022-10-16T04:55:05;7.15;;;3.45;;
73158;SDS011;61370;48.594;10.202;2022-10-16T04:57:33;8.90;;;3.80;;
73158;SDS011;61370;48.594;10.202;2022-10-16T04:59:59;7.72;;;3.88;;
73158;SDS011;61370;48.594;10.202;2022-10-16T05:02:26;5.80;;;3.47;;
73158;SDS011;61370;48.594;10.202;2022-10-16T05:04:52;7.13;;;3.40;;
73158;SDS011;61370;48.594;10.202;2022-10-16T05:07:19;8.70;;;3.42;;
73158;SDS011;61370;48.594;10.202;2022-10-16T05:09:46;8.00;;;3.53;;
73158;SDS011;61370;48.594;10.202;2022-10-16T05:12:12;5.22;;;3.08;;
73158;SDS011;61370;48.594;10.202;2022-10-16T05:14:39;4.88;;;2.90;;
73158;SDS011;61370;48.594;10.202;2022-10-16T05:17:05;8.82;;;3.75;;
73158;SDS011;61370;48.594;10.202;2022-10-16T05:19:32;10.40;;;5.90;;
73158;SDS011;61370;48.594;10.202;2022-10-16T05:21:58;12.18;;;4.95;;
73158;SDS011;61370;48.594;10.202;2022-10-16T05:24:25;6.28;;;3.85;;
73158;SDS011;61370;48.594;10.202;2022-10-16T05:26:51;6.63;;;4.43;;
73158;SDS011;61370;48.594;10.202;2022-10-16T05:29:18;8.52;;;3.58;;
73158;SDS011;61370;48.594;10.202;2022-10-16T05:31:44;8.70;;;3.95;;
73158;SDS011;61370;48.594;10.202;2022-10-16T05:34:11;7.80;;;3.92;;
73158;SDS011;61370;48.594;10.202;2022-10-16T05:36:37;7.75;;;4.63;;
73158;SDS011;61370;48.594;10.202;2022-10-16T05:39:04;7.03;;;4.20;;
73158;SDS011;61370;48.594;10.202;2022-10-16T05:41:30;9.80;;;4.32;;
73158;SDS011;61370;48.594;10.202;2022-10-16T05:43:57;6.43;;;4.13;;
73158;SDS011;61370;48.594;10.202;2022-10-16T05:46:24;9.60;;;4.18;;
73158;SDS011;61370;48.594;10.202;2022-10-16T05:48:53;8.13;;;3.92;;
73158;SDS011;61370;48.594;10.202;2022-10-16T05:51:20;8.48;;;4.40;;
73158;SDS011;61370;48.594;10.202;2022-10-16T05:53:46;11.00;;;4.15;;
73158;SDS011;61370;48.594;10.202;2022-10-16T05:56:13;6.63;;;4.10;;
73158;SDS011;61370;48.594;10.202;2022-10-16T05:58:39;8.32;;;4.68;;
73158;SDS011;61370;48.594;10.202;2022-10-16T06:01:10;7.40;;;4.68;;
73158;SDS011;61370;48.594;10.202;2022-10-16T06:03:41;9.07;;;4.43;;
73158;SDS011;61370;48.594;10.202;2022-10-16T06:06:12;8.00;;;4.60;;
73158;SDS011;61370;48.594;10.202;2022-10-16T06:08:43;7.95;;;4.50;;
73158;SDS011;61370;48.594;10.202;2022-10-16T06:11:12;8.00;;;4.63;;
73158;SDS011;61370;48.594;10.202;2022-10-16T06:13:49;10.13;;;4.55;;
73158;SDS011;61370;48.594;10.202;2022-10-16T06:16:19;9.68;;;4.90;;
73158;SDS011;61370;48.594;10.202;2022-10-16T06:18:46;7.00;;;4.85;;
73158;SDS011;61370;48.594;10.202;2022-10-16T06:21:16;10.57;;;5.75;;
73158;SDS011;61370;48.594;10.202;2022-10-16T06:23:44;7.70;;;5.00;;
73158;SDS011;61370;48.594;10.202;2022-10-16T06:28:42;7.93;;;4.40;;
73158;SDS011;61370;48.594;10.202;2022-10-16T06:31:09;8.30;;;4.40;;
73158;SDS011;61370;48.594;10.202;2022-10-16T06:33:37;7.72;;;4.00;;
73158;SDS011;61370;48.594;10.202;2022-10-16T06:36:14;10.05;;;4.45;;
73158;SDS011;61370;48.594;10.202;2022-10-16T06:38:41;7.10;;;4.43;;
73158;SDS011;61370;48.594;10.202;2022-10-16T06:41:09;7.93;;;4.55;;
73158;SDS011;61370;48.594;10.202;2022-10-16T06:43:44;6.40;;;4.00;;
73158;SDS011;61370;48.594;10.202;2022-10-16T06:46:11;9.65;;;4.82;;
73158;SDS011;61370;48.594;10.202;2022-10-16T06:48:39;5.75;;;3.00;;
73158;SDS011;61370;48.594;10.202;2022-10-16T06:51:06;6.90;;;2.97;;
73158;SDS011;61370;48.594;10.202;2022-10-16T06:53:37;5.95;;;3.45;;
73158;SDS011;61370;48.594;10.202;2022-10-16T06:56:15;6.00;;;3.53;;
73158;SDS011;61370;48.594;10.202;2022-10-16T07:01:13;6.32;;;3.95;;
73158;SDS011;61370;48.594;10.202;2022-10-16T07:03:41;7.78;;;3.50;;
73158;SDS011;61370;48.594;10.202;2022-10-16T07:06:09;7.05;;;3.85;;
73158;SDS011;61370;48.594;10.202;2022-10-16T07:08:37;5.97;;;3.40;;
73158;SDS011;61370;48.594;10.202;2022-10-16T07:11:06;6.88;;;3.28;;
73158;SDS011;61370;48.594;10.202;2022-10-16T07:13:34;6.53;;;2.95;;
73158;SDS011;61370;48.594;10.202;2022-10-16T07:16:09;5.07;;;2.92;;
73158;SDS011;61370;48.594;10.202;2022-10-16T07:18:37;4.47;;;2.92;;
73158;SDS011;61370;48.594;10.202;2022-10-16T07:21:06;7.38;;;2.85;;
73158;SDS011;61370;48.594;10.202;2022-10-16T07:23:36;6.20;;;3.13;;
73158;SDS011;61370;48.594;10.202;2022-10-16T07:26:03;4.82;;;2.85;;
73158;SDS011;61370;48.594;10.202;2022-10-16T07:28:31;4.47;;;2.75;;
73158;SDS011;61370;48.594;10.202;2022-10-16T07:31:16;5.80;;;2.83;;
73158;SDS011;61370;48.594;10.202;2022-10-16T07:33:44;6.70;;;3.00;;
73158;SDS011;61370;48.594;10.202;2022-10-16T07:36:12;5.50;;;3.15;;
73158;SDS011;61370;48.594;10.202;2022-10-16T07:38:39;9.50;;;4.15;;
73158;SDS011;61370;48.594;10.202;2022-10-16T07:41:06;10.07;;;3.40;;
73158;SDS011;61370;48.594;10.202;2022-10-16T07:43:33;5.15;;;3.15;;
73158;SDS011;61370;48.594;10.202;2022-10-16T07:46:00;7.30;;;2.88;;
73158;SDS011;61370;48.594;10.202;2022-10-16T07:48:27;5.00;;;2.70;;
73158;SDS011;61370;48.594;10.202;2022-10-16T07:53:48;6.07;;;2.83;;
73158;SDS011;61370;48.594;10.202;2022-10-16T07:56:15;9.75;;;3.83;;
73158;SDS011;61370;48.594;10.202;2022-10-16T07:58:43;5.50;;;2.53;;
73158;SDS011;61370;48.594;10.202;2022-10-16T08:01:10;5.25;;;2.90;;
73158;SDS011;61370;48.594;10.202;2022-10-16T08:03:46;4.40;;;2.85;;
73158;SDS011;61370;48.594;10.202;2022-10-16T08:06:14;6.13;;;2.55;;
73158;SDS011;61370;48.594;10.202;2022-10-16T08:08:42;5.18;;;2.60;;
73158;SDS011;61370;48.594;10.202;2022-10-16T08:11:08;5.72;;;2.75;;
73158;SDS011;61370;48.594;10.202;2022-10-16T08:13:41;5.70;;;3.67;;
73158;SDS011;61370;48.594;10.202;2022-10-16T08:16:08;8.57;;;4.13;;
73158;SDS011;61370;48.594;10.202;2022-10-16T08:18:36;8.00;;;3.28;;
73158;SDS011;61370;48.594;10.202;2022-10-16T08:21:03;9.00;;;3.72;;
73158;SDS011;61370;48.594;10.202;2022-10-16T08:23:31;6.50;;;3.90;;
73158;SDS011;61370;48.594;10.202;2022-10-16T08:26:02;7.22;;;3.80;;
73158;SDS011;61370;48.594;10.202;2022-10-16T08:28:31;5.50;;;3.33;;
73158;SDS011;61370;48.594;10.202;2022-10-16T08:31:08;5.85;;;3.47;;
73158;SDS011;61370;48.594;10.202;2022-10-16T08:33:35;6.28;;;3.42;;
73158;SDS011;61370;48.594;10.202;2022-10-16T08:36:03;5.38;;;3.00;;
73158;SDS011;61370;48.594;10.202;2022-10-16T08:38:31;11.73;;;3.40;;
73158;SDS011;61370;48.594;10.202;2022-10-16T08:41:01;4.68;;;2.90;;
73158;SDS011;61370;48.594;10.202;2022-10-16T08:43:51;4.85;;;3.10;;
73158;SDS011;61370;48.594;10.202;2022-10-16T08:49:33;6.72;;;3.17;;
73158;SDS011;61370;48.594;10.202;2022-10-16T08:51:59;8.27;;;2.85;;
73158;SDS011;61370;48.594;10.202;2022-10-16T08:54:31;7.93;;;3.25;;
73158;SDS011;61370;48.594;10.202;2022-10-16T08:57:12;5.20;;;3.03;;
73158;SDS011;61370;48.594;10.202;2022-10-16T08:59:40;8.10;;;2.80;;
73158;SDS011;61370;48.594;10.202;2022-10-16T09:07:39;5.93;;;3.25;;
73158;SDS011;61370;48.594;10.202;2022-10-16T09:15:56;5.75;;;2.60;;
73158;SDS011;61370;48.594;10.202;2022-10-16T09:19:01;4.97;;;2.67;;
73158;SDS011;61370;48.594;10.202;2022-10-16T09:21:32;6.40;;;2.83;;
73158;SDS011;61370;48.594;10.202;2022-10-16T09:24:10;4.60;;;2.70;;
73158;SDS011;61370;48.594;10.202;2022-10-16T09:26:40;5.63;;;2.78;;
73158;SDS011;61370;48.594;10.202;2022-10-16T09:29:08;5.07;;;2.47;;
73158;SDS011;61370;48.594;10.202;2022-10-16T09:31:37;4.60;;;2.50;;
73158;SDS011;61370;48.594;10.202;2022-10-16T09:34:03;4.93;;;3.05;;
73158;SDS011;61370;48.594;10.202;2022-10-16T09:36:41;7.32;;;2.55;;
73158;SDS011;61370;48.594;10.202;2022-10-16T09:39:10;3.80;;;2.17;;
73158;SDS011;61370;48.594;10.202;2022-10-16T09:41:39;6.03;;;2.20;;
73158;SDS011;61370;48.594;10.202;2022-10-16T09:46:46;5.10;;;2.40;;
73158;SDS011;61370;48.594;10.202;2022-10-16T09:49:20;6.03;;;2.10;;
73158;SDS011;61370;48.594;10.202;2022-10-16T09:51:51;6.43;;;2.08;;
73158;SDS011;61370;48.594;10.202;2022-10-16T09:54:31;4.57;;;1.60;;
73158;SDS011;61370;48.594;10.202;2022-10-16T09:57:04;3.92;;;2.00;;
73158;SDS011;61370;48.594;10.202;2022-10-16T09:59:44;6.63;;;2.13;;
73158;SDS011;61370;48.594;10.202;2022-10-16T10:02:12;4.05;;;2.03;;
73158;SDS011;61370;48.594;10.202;2022-10-16T10:04:41;3.85;;;1.75;;
73158;SDS011;61370;48.594;10.202;2022-10-16T10:07:17;3.63;;;1.80;;
73158;SDS011;61370;48.594;10.202;2022-10-16T10:09:45;3.50;;;1.83;;
73158;SDS011;61370;48.594;10.202;2022-10-16T10:12:28;5.07;;;2.10;;
73158;SDS011;61370;48.594;10.202;2022-10-16T10:14:55;6.30;;;2.10;;
73158;SDS011;61370;48.594;10.202;2022-10-16T10:17:24;5.20;;;1.90;;
73158;SDS011;61370;48.594;10.202;2022-10-16T10:46:38;4.18;;;1.90;;
73158;SDS011;61370;48.594;10.202;2022-10-16T10:52:13;6.10;;;2.00;;
73158;SDS011;61370;48.594;10.202;2022-10-16T10:54:52;4.63;;;1.65;;
73158;SDS011;61370;48.594;10.202;2022-10-16T11:02:37;3.47;;;1.75;;
73158;SDS011;61370;48.594;10.202;2022-10-16T11:05:17;3.80;;;1.70;;
73158;SDS011;61370;48.594;10.202;2022-10-16T11:10:42;5.90;;;1.80;;
73158;SDS011;61370;48.594;10.202;2022-10-16T11:15:50;4.63;;;1.73;;
73158;SDS011;61370;48.594;10.202;2022-10-16T11:18:21;3.83;;;1.58;;
73158;SDS011;61370;48.594;10.202;2022-10-16T11:20:52;3.95;;;1.80;;
73158;SDS011;61370;48.594;10.202;2022-10-16T11:25:52;4.28;;;1.40;;
73158;SDS011;61370;48.594;10.202;2022-10-16T11:28:22;5.63;;;2.00;;
73158;SDS011;61370;48.594;10.202;2022-10-16T11:30:52;5.00;;;1.50;;
73158;SDS011;61370;48.594;10.202;2022-10-16T11:33:25;4.40;;;1.83;;
73158;SDS011;61370;48.594;10.202;2022-10-16T11:43:46;6.93;;;2.22;;
73158;SDS011;61370;48.594;10.202;2022-10-16T11:48:48;6.68;;;1.83;;
73158;SDS011;61370;48.594;10.202;2022-10-16T11:56:59;3.50;;;1.90;;
73158;SDS011;61370;48.594;10.202;2022-10-16T11:59:46;5.03;;;1.50;;
73158;SDS011;61370;48.594;10.202;2022-10-16T12:10:33;4.65;;;1.60;;
73158;SDS011;61370;48.594;10.202;2022-10-16T12:16:19;3.53;;;1.75;;
73158;SDS011;61370;48.594;10.202;2022-10-16T12:18:48;5.20;;;1.90;;
73158;SDS011;61370;48.594;10.202;2022-10-16T12:21:15;4.07;;;1.33;;
73158;SDS011;61370;48.594;10.202;2022-10-16T12:23:46;12.63;;;2.40;;
73158;SDS011;61370;48.594;10.202;2022-10-16T12:26:22;3.47;;;1.70;;
73158;SDS011;61370;48.594;10.202;2022-10-16T12:28:50;3.63;;;1.70;;
73158;SDS011;61370;48.594;10.202;2022-10-16T12:31:17;5.13;;;1.70;;
73158;SDS011;61370;48.594;10.202;2022-10-16T12:34:01;3.67;;;1.58;;
73158;SDS011;61370;48.594;10.202;2022-10-16T12:36:29;2.85;;;1.30;;
73158;SDS011;61370;48.594;10.202;2022-10-16T12:38:57;3.63;;;1.70;;
73158;SDS011;61370;48.594;10.202;2022-10-16T12:41:25;3.55;;;1.40;;
73158;SDS011;61370;48.594;10.202;2022-10-16T12:43:54;3.88;;;1.48;;
73158;SDS011;61370;48.594;10.202;2022-10-16T12:46:23;2.83;;;1.40;;
73158;SDS011;61370;48.594;10.202;2022-10-16T12:49:20;3.78;;;1.30;;
73158;SDS011;61370;48.594;10.202;2022-10-16T12:51:50;3.15;;;1.33;;
73158;SDS011;61370;48.594;10.202;2022-10-16T12:54:22;3.75;;;1.63;;
73158;SDS011;61370;48.594;10.202;2022-10-16T13:02:08;3.97;;;1.30;;
73158;SDS011;61370;48.594;10.202;2022-10-16T13:10:15;3.70;;;1.40;;
73158;SDS011;61370;48.594;10.202;2022-10-16T13:15:36;4.00;;;1.50;;
73158;SDS011;61370;48.594;10.202;2022-10-16T13:21:41;3.00;;;1.17;;
73158;SDS011;61370;48.594;10.202;2022-10-16T13:29:12;4.05;;;1.40;;
73158;SDS011;61370;48.594;10.202;2022-10-16T13:31:40;4.15;;;1.30;;
73158;SDS011;61370;48.594;10.202;2022-10-16T13:34:12;4.68;;;1.40;;
73158;SDS011;61370;48.594;10.202;2022-10-16T13:36:43;4.55;;;1.40;;
73158;SDS011;61370;48.594;10.202;2022-10-16T13:39:26;3.78;;;1.23;;
73158;SDS011;61370;48.594;10.202;2022-10-16T13:42:06;3.72;;;1.30;;
73158;SDS011;61370;48.594;10.202;2022-10-16T13:44:40;3.40;;;1.40;;
73158;SDS011;61370;48.594;10.202;2022-10-16T13:47:12;2.40;;;1.30;;
73158;SDS011;61370;48.594;10.202;2022-10-16T13:49:42;5.93;;;1.20;;
73158;SDS011;61370;48.594;10.202;2022-10-16T13:52:19;2.60;;;1.20;;
73158;SDS011;61370;48.594;10.202;2022-10-16T13:54:46;4.15;;;1.35;;
73158;SDS011;61370;48.594;10.202;2022-10-16T13:57:16;2.67;;;1.20;;
73158;SDS011;61370;48.594;10.202;2022-10-16T13:59:43;3.55;;;1.10;;
73158;SDS011;61370;48.594;10.202;2022-10-16T14:02:21;2.92;;;1.75;;
73158;SDS011;61370;48.594;10.202;2022-10-16T14:04:51;6.78;;;1.60;;
73158;SDS011;61370;48.594;10.202;2022-10-16T14:07:22;3.85;;;1.40;;
73158;SDS011;61370;48.594;10.202;2022-10-16T14:09:51;2.80;;;1.25;;
73158;SDS011;61370;48.594;10.202;2022-10-16T14:12:19;2.50;;;1.20;;
73158;SDS011;61370;48.594;10.202;2022-10-16T14:14:48;6.50;;;2.03;;
73158;SDS011;61370;48.594;10.202;2022-10-16T14:19:58;3.10;;;1.30;;
73158;SDS011;61370;48.594;10.202;2022-10-16T14:22:33;3.22;;;1.30;;
73158;SDS011;61370;48.594;10.202;2022-10-16T14:27:45;2.85;;;1.23;;
73158;SDS011;61370;48.594;10.202;2022-10-16T14:30:24;4.78;;;1.60;;
73158;SDS011;61370;48.594;10.202;2022-10-16T14:33:01;3.88;;;1.27;;
73158;SDS011;61370;48.594;10.202;2022-10-16T14:35:36;4.07;;;1.63;;
73158;SDS011;61370;48.594;10.202;2022-10-16T14:38:05;2.35;;;1.38;;
73158;SDS011;61370;48.594;10.202;2022-10-16T14:40:38;5.53;;;1.30;;
73158;SDS011;61370;48.594;10.202;2022-10-16T14:43:04;4.65;;;1.60;;
73158;SDS011;61370;48.594;10.202;2022-10-16T14:45:32;2.95;;;1.30;;
73158;SDS011;61370;48.594;10.202;2022-10-16T14:48:01;3.05;;;1.20;;
73158;SDS011;61370;48.594;10.202;2022-10-16T14:50:31;4.57;;;1.50;;
73158;SDS011;61370;48.594;10.202;2022-10-16T14:52:58;4.18;;;1.77;;
73158;SDS011;61370;48.594;10.202;2022-10-16T14:55:24;4.57;;;1.60;;
73158;SDS011;61370;48.594;10.202;2022-10-16T14:57:51;4.78;;;1.50;;
73158;SDS011;61370;48.594;10.202;2022-10-16T15:00:22;5.03;;;1.70;;
73158;SDS011;61370;48.594;10.202;2022-10-16T15:02:50;4.97;;;1.55;;
73158;SDS011;61370;48.594;10.202;2022-10-16T15:05:20;3.35;;;1.58;;
73158;SDS011;61370;48.594;10.202;2022-10-16T15:07:52;4.72;;;1.85;;
73158;SDS011;61370;48.594;10.202;2022-10-16T15:10:21;3.50;;;1.67;;
73158;SDS011;61370;48.594;10.202;2022-10-16T15:12:49;4.25;;;1.70;;
73158;SDS011;61370;48.594;10.202;2022-10-16T15:17:57;3.67;;;1.50;;
73158;SDS011;61370;48.594;10.202;2022-10-16T15:20:27;4.93;;;1.55;;
73158;SDS011;61370;48.594;10.202;2022-10-16T15:22:56;5.05;;;1.88;;
73158;SDS011;61370;48.594;10.202;2022-10-16T15:27:55;3.47;;;1.63;;
73158;SDS011;61370;48.594;10.202;2022-10-16T15:30:22;4.68;;;1.42;;
73158;SDS011;61370;48.594;10.202;2022-10-16T15:32:48;3.47;;;1.52;;
73158;SDS011;61370;48.594;10.202;2022-10-16T15:35:15;3.40;;;1.25;;
73158;SDS011;61370;48.594;10.202;2022-10-16T15:37:41;4.10;;;1.42;;
73158;SDS011;61370;48.594;10.202;2022-10-16T15:40:08;5.43;;;1.80;;
73158;SDS011;61370;48.594;10.202;2022-10-16T15:42:36;5.22;;;1.88;;
73158;SDS011;61370;48.594;10.202;2022-10-16T15:45:02;5.28;;;1.85;;
73158;SDS011;61370;48.594;10.202;2022-10-16T15:47:30;4.25;;;1.90;;
73158;SDS011;61370;48.594;10.202;2022-10-16T15:49:56;4.68;;;1.42;;
73158;SDS011;61370;48.594;10.202;2022-10-16T15:52:23;7.32;;;1.90;;
73158;SDS011;61370;48.594;10.202;2022-10-16T15:54:49;4.45;;;2.03;;
73158;SDS011;61370;48.594;10.202;2022-10-16T15:57:16;3.67;;;1.50;;
73158;SDS011;61370;48.594;10.202;2022-10-16T15:59:42;6.03;;;1.80;;
73158;SDS011;61370;48.594;10.202;2022-10-16T16:02:09;4.28;;;1.95;;
73158;SDS011;61370;48.594;10.202;2022-10-16T16:04:35;4.93;;;1.90;;
73158;SDS011;61370;48.594;10.202;2022-10-16T16:07:02;6.43;;;1.90;;
73158;SDS011;61370;48.594;10.202;2022-10-16T16:09:29;4.40;;;2.00;;
73158;SDS011;61370;48.594;10.202;2022-10-16T16:11:55;5.30;;;2.08;;
73158;SDS011;61370;48.594;10.202;2022-10-16T16:14:22;4.32;;;1.75;;
73158;SDS011;61370;48.594;10.202;2022-10-16T16:16:50;6.88;;;1.77;;
73158;SDS011;61370;48.594;10.202;2022-10-16T16:19:16;4.95;;;1.90;;
73158;SDS011;61370;48.594;10.202;2022-10-16T16:21:47;3.83;;;1.75;;
73158;SDS011;61370;48.594;10.202;2022-10-16T16:24:14;7.07;;;2.33;;
73158;SDS011;61370;48.594;10.202;2022-10-16T16:26:40;5.93;;;3.10;;
73158;SDS011;61370;48.594;10.202;2022-10-16T16:29:13;6.63;;;3.00;;
73158;SDS011;61370;48.594;10.202;2022-10-16T16:31:40;7.72;;;3.30;;
73158;SDS011;61370;48.594;10.202;2022-10-16T16:34:07;10.93;;;3.95;;
73158;SDS011;61370;48.594;10.202;2022-10-16T16:36:34;7.45;;;3.53;;
73158;SDS011;61370;48.594;10.202;2022-10-16T16:39:01;6.50;;;3.83;;
73158;SDS011;61370;48.594;10.202;2022-10-16T16:41:28;7.22;;;3.83;;
73158;SDS011;61370;48.594;10.202;2022-10-16T16:44:00;10.43;;;4.60;;
73158;SDS011;61370;48.594;10.202;2022-10-16T16:46:28;7.68;;;4.68;;
73158;SDS011;61370;48.594;10.202;2022-10-16T16:48:55;7.50;;;3.80;;
73158;SDS011;61370;48.594;10.202;2022-10-16T16:51:24;8.43;;;4.22;;
73158;SDS011;61370;48.594;10.202;2022-10-16T16:53:52;10.43;;;3.20;;
73158;SDS011;61370;48.594;10.202;2022-10-16T16:56:20;8.98;;;4.72;;
73158;SDS011;61370;48.594;10.202;2022-10-16T16:58:48;7.60;;;3.78;;
73158;SDS011;61370;48.594;10.202;2022-10-16T17:01:15;7.80;;;4.10;;
73158;SDS011;61370;48.594;10.202;2022-10-16T17:03:43;12.20;;;4.45;;
73158;SDS011;61370;48.594;10.202;2022-10-16T17:06:11;9.32;;;4.60;;
73158;SDS011;61370;48.594;10.202;2022-10-16T17:08:38;6.65;;;3.55;;
73158;SDS011;61370;48.594;10.202;2022-10-16T17:11:05;10.23;;;5.18;;
73158;SDS011;61370;48.594;10.202;2022-10-16T17:13:32;12.73;;;5.65;;